createdAt,value
2023-05-06T00:01:57.875Z,12.82
2023-05-06T00:04:24.583Z,12.76
2023-05-06T00:06:51.412Z,12.72
2023-05-06T00:09:18.061Z,12.68
2023-05-06T00:11:45.832Z,12.64
2023-05-06T00:14:12.519Z,12.58
2023-05-06T00:16:39.196Z,12.51
2023-05-06T00:19:05.829Z,12.47
2023-05-06T00:21:32.461Z,12.45
2023-05-06T00:23:59.086Z,12.41
2023-05-06T00:26:25.669Z,12.32
2023-05-06T00:28:53.257Z,12.30
2023-05-06T00:31:19.923Z,12.26
2023-05-06T00:33:46.655Z,12.24
2023-05-06T00:36:13.267Z,12.28
2023-05-06T00:38:40.090Z,12.28
2023-05-06T00:41:06.976Z,12.27
2023-05-06T00:43:33.566Z,12.27
2023-05-06T00:46:00.728Z,12.18
2023-05-06T00:48:27.594Z,12.20
2023-05-06T00:50:54.307Z,12.18
2023-05-06T00:53:23.711Z,12.18
2023-05-06T00:55:51.282Z,12.16
2023-05-06T00:58:20.149Z,12.12
2023-05-06T01:00:46.840Z,12.06
2023-05-06T01:03:13.688Z,12.01
2023-05-06T01:05:51.086Z,12.00
2023-05-06T01:08:27.802Z,11.99
2023-05-06T01:11:00.287Z,11.97
2023-05-06T01:13:56.390Z,11.89
2023-05-06T01:16:25.410Z,11.82
2023-05-06T01:18:54.774Z,11.69
2023-05-06T01:21:22.742Z,11.58
2023-05-06T01:23:58.726Z,11.57
2023-05-06T01:26:26.327Z,11.55
2023-05-06T01:28:53.888Z,11.59
2023-05-06T01:31:26.329Z,11.64
2023-05-06T01:34:05.113Z,11.69
2023-05-06T01:36:57.645Z,11.62
2023-05-06T01:39:26.516Z,11.60
2023-05-06T01:41:57.334Z,11.54
2023-05-06T01:44:27.611Z,11.48
2023-05-06T01:46:55.190Z,11.41
2023-05-06T01:49:25.126Z,11.40
2023-05-06T01:51:53.082Z,11.34
2023-05-06T01:54:19.721Z,11.28
2023-05-06T01:56:46.675Z,11.28
2023-05-06T01:59:14.731Z,11.33
2023-05-06T02:01:41.367Z,11.42
2023-05-06T02:04:08.055Z,11.50
2023-05-06T02:06:34.682Z,11.60
2023-05-06T02:09:01.409Z,11.71
2023-05-06T02:11:29.747Z,11.72
2023-05-06T02:14:02.246Z,11.67
2023-05-06T02:16:31.490Z,11.68
2023-05-06T02:18:58.284Z,11.67
2023-05-06T02:21:24.893Z,11.68
2023-05-06T02:23:51.506Z,11.65
2023-05-06T02:26:18.133Z,11.50
2023-05-06T02:28:44.755Z,11.40
2023-05-06T02:31:16.233Z,11.35
2023-05-06T02:33:45.000Z,11.48
2023-05-06T02:36:11.588Z,11.60
2023-05-06T02:38:38.141Z,11.57
2023-05-06T02:41:04.836Z,11.59
2023-05-06T02:43:31.431Z,11.68
2023-05-06T02:45:58.406Z,11.76
2023-05-06T02:48:25.703Z,11.78
2023-05-06T02:50:52.398Z,11.79
2023-05-06T02:53:19.041Z,11.73
2023-05-06T02:55:45.846Z,11.73
2023-05-06T02:58:12.428Z,11.77
2023-05-06T03:00:39.005Z,11.67
2023-05-06T03:03:05.894Z,11.57
2023-05-06T03:05:32.568Z,11.59
2023-05-06T03:07:59.187Z,11.72
2023-05-06T03:10:25.894Z,11.76
2023-05-06T03:12:52.932Z,11.73
2023-05-06T03:15:19.592Z,11.71
2023-05-06T03:17:47.530Z,11.71
2023-05-06T03:20:14.504Z,11.75
2023-05-06T03:22:46.427Z,11.70
2023-05-06T03:25:13.043Z,11.67
2023-05-06T03:27:41.251Z,11.59
2023-05-06T03:30:15.375Z,11.58
2023-05-06T03:32:42.529Z,11.61
2023-05-06T03:35:12.090Z,11.61
2023-05-06T03:37:41.773Z,11.56
2023-05-06T03:40:09.452Z,11.51
2023-05-06T03:42:36.359Z,11.49
2023-05-06T03:45:05.060Z,11.55
2023-05-06T03:47:32.960Z,11.61
2023-05-06T03:50:00.962Z,11.61
2023-05-06T03:52:28.322Z,11.60
2023-05-06T03:54:55.277Z,11.65
2023-05-06T03:57:22.241Z,11.68
2023-05-06T03:59:49.149Z,11.66
2023-05-06T04:02:16.378Z,11.78
2023-05-06T04:04:43.250Z,11.79
2023-05-06T04:07:10.094Z,11.79
2023-05-06T04:09:36.720Z,11.89
2023-05-06T04:12:07.128Z,11.93
2023-05-06T04:14:34.905Z,11.96
2023-05-06T04:17:02.212Z,12.03
2023-05-06T04:19:28.848Z,11.95
2023-05-06T04:21:56.621Z,11.95
2023-05-06T04:24:23.279Z,11.96
2023-05-06T04:26:50.072Z,11.90
2023-05-06T04:29:17.227Z,11.92
2023-05-06T04:31:54.680Z,11.87
2023-05-06T04:34:22.639Z,11.90
2023-05-06T04:36:49.515Z,11.91
2023-05-06T04:39:34.576Z,11.83
2023-05-06T04:42:02.252Z,11.90
2023-05-06T04:44:36.480Z,11.90
2023-05-06T04:47:06.205Z,11.88
2023-05-06T04:49:32.926Z,11.89
2023-05-06T04:52:01.015Z,11.89
2023-05-06T04:54:27.785Z,11.96
2023-05-06T04:56:54.446Z,12.01
2023-05-06T04:59:21.127Z,12.07
2023-05-06T05:01:48.322Z,12.15
2023-05-06T05:04:15.980Z,12.15
2023-05-06T05:06:42.832Z,12.19
2023-05-06T05:09:10.645Z,12.29
2023-05-06T05:11:39.852Z,12.29
2023-05-06T05:14:06.553Z,12.25
2023-05-06T05:16:33.471Z,12.19
2023-05-06T05:19:03.532Z,12.15
2023-05-06T05:21:32.844Z,12.19
2023-05-06T05:24:00.303Z,12.19
2023-05-06T05:26:27.102Z,12.23
2023-05-06T05:28:55.632Z,12.21
2023-05-06T05:31:23.108Z,12.22
2023-05-06T05:33:50.183Z,12.29
2023-05-06T05:36:19.975Z,12.33
2023-05-06T05:38:50.005Z,12.35
2023-05-06T05:41:17.923Z,12.38
2023-05-06T05:43:45.574Z,12.45
2023-05-06T05:46:12.285Z,12.47
2023-05-06T05:48:40.006Z,12.43
2023-05-06T05:51:07.357Z,12.43
2023-05-06T05:53:34.139Z,12.40
2023-05-06T05:56:00.750Z,12.50
2023-05-06T05:58:28.562Z,12.47
2023-05-06T06:00:57.827Z,12.39
2023-05-06T06:03:25.023Z,12.35
2023-05-06T06:05:53.143Z,12.35
2023-05-06T06:08:20.008Z,12.39
2023-05-06T06:10:48.568Z,12.37
2023-05-06T06:13:20.474Z,12.42
2023-05-06T06:15:47.365Z,12.39
2023-05-06T06:18:14.498Z,12.35
2023-05-06T06:20:42.188Z,12.35
2023-05-06T06:23:09.246Z,12.34
2023-05-06T06:25:36.218Z,12.44
2023-05-06T06:28:02.905Z,12.48
2023-05-06T06:30:29.615Z,12.58
2023-05-06T06:32:56.856Z,12.63
2023-05-06T06:35:23.810Z,12.78
2023-05-06T06:37:50.726Z,12.83
2023-05-06T06:40:17.419Z,12.81
2023-05-06T06:42:44.078Z,12.85
2023-05-06T06:45:29.383Z,12.84
2023-05-06T06:47:56.096Z,12.87
2023-05-06T06:50:22.708Z,12.91
2023-05-06T06:52:49.279Z,12.95
2023-05-06T06:55:15.905Z,13.09
2023-05-06T06:57:42.523Z,13.23
2023-05-06T07:00:10.203Z,13.37
2023-05-06T07:02:36.862Z,13.51
2023-05-06T07:05:04.501Z,13.63
2023-05-06T07:07:31.244Z,13.54
2023-05-06T07:09:58.272Z,13.55
2023-05-06T07:12:26.708Z,13.38
2023-05-06T07:14:53.356Z,13.21
2023-05-06T07:17:20.052Z,13.27
2023-05-06T07:19:46.783Z,13.25
2023-05-06T07:22:13.370Z,13.28
2023-05-06T07:24:39.990Z,13.30
2023-05-06T07:27:06.604Z,13.30
2023-05-06T07:29:34.850Z,13.26
2023-05-06T07:32:01.704Z,13.18
2023-05-06T07:34:28.346Z,13.19
2023-05-06T07:36:54.932Z,13.14
2023-05-06T07:39:21.524Z,13.10
2023-05-06T07:41:48.132Z,13.11
2023-05-06T07:44:14.716Z,13.15
2023-05-06T07:46:41.549Z,13.24
2023-05-06T07:49:08.223Z,13.28
2023-05-06T07:51:34.893Z,13.27
2023-05-06T07:54:01.906Z,13.18
2023-05-06T07:56:28.636Z,13.09
2023-05-06T07:58:55.312Z,13.05
2023-05-06T08:01:22.104Z,13.02
2023-05-06T08:03:48.732Z,13.01
2023-05-06T08:06:15.349Z,13.06
2023-05-06T08:08:41.986Z,13.19
2023-05-06T08:11:08.598Z,13.22
2023-05-06T08:13:35.320Z,13.21
2023-05-06T08:16:02.467Z,13.36
2023-05-06T08:18:29.972Z,13.37
2023-05-06T08:20:56.765Z,13.35
2023-05-06T08:23:23.578Z,13.43
2023-05-06T08:25:50.220Z,13.52
2023-05-06T08:28:16.854Z,13.56
2023-05-06T08:30:44.742Z,13.84
2023-05-06T08:33:11.416Z,13.92
2023-05-06T08:35:38.112Z,13.85
2023-05-06T08:38:04.824Z,13.79
2023-05-06T08:40:33.582Z,13.82
2023-05-06T08:43:03.395Z,13.90
2023-05-06T08:45:30.327Z,14.01
2023-05-06T08:47:57.318Z,13.93
2023-05-06T08:50:25.481Z,13.91
2023-05-06T08:52:52.288Z,13.76
2023-05-06T08:55:19.714Z,13.50
2023-05-06T08:57:47.950Z,13.37
2023-05-06T09:00:15.087Z,13.33
2023-05-06T09:02:43.313Z,13.34
2023-05-06T09:05:12.174Z,13.31
2023-05-06T09:07:39.126Z,13.23
2023-05-06T09:10:07.829Z,13.22
2023-05-06T09:12:37.876Z,13.18
2023-05-06T09:15:05.247Z,13.10
2023-05-06T09:17:32.661Z,13.03
2023-05-06T09:20:00.961Z,12.99
2023-05-06T09:22:29.579Z,12.97
2023-05-06T09:25:00.046Z,12.96
2023-05-06T09:27:32.907Z,12.95
2023-05-06T09:30:07.328Z,12.99
2023-05-06T09:32:36.813Z,13.09
2023-05-06T09:35:06.990Z,13.36
2023-05-06T09:37:33.678Z,13.55
2023-05-06T09:40:03.465Z,13.60
2023-05-06T09:42:31.044Z,13.60
2023-05-06T09:45:02.134Z,13.51
2023-05-06T09:47:35.170Z,13.55
2023-05-06T09:50:03.692Z,13.64
2023-05-06T09:52:31.339Z,13.96
2023-05-06T09:54:58.544Z,14.58
2023-05-06T09:57:26.345Z,15.41
2023-05-06T09:59:54.212Z,15.58
2023-05-06T10:02:22.972Z,15.48
2023-05-06T10:04:50.361Z,15.11
2023-05-06T10:07:22.543Z,14.93
2023-05-06T10:09:50.763Z,14.78
2023-05-06T10:12:18.285Z,14.61
2023-05-06T10:14:45.074Z,14.58
2023-05-06T10:17:13.204Z,14.67
2023-05-06T10:19:44.193Z,14.67
2023-05-06T10:22:46.305Z,14.58
2023-05-06T10:25:38.892Z,14.53
2023-05-06T10:28:08.492Z,14.52
2023-05-06T10:30:40.822Z,14.67
2023-05-06T10:33:09.755Z,14.77
2023-05-06T10:35:52.912Z,14.61
2023-05-06T10:38:26.745Z,14.65
2023-05-06T10:40:54.801Z,14.65
2023-05-06T10:43:35.326Z,14.46
2023-05-06T10:46:03.731Z,14.49
2023-05-06T10:48:31.393Z,14.51
2023-05-06T10:51:19.812Z,14.41
2023-05-06T10:53:57.265Z,14.27
2023-05-06T10:56:24.619Z,14.16
2023-05-06T10:58:52.155Z,13.94
2023-05-06T11:01:22.399Z,13.86
2023-05-06T11:03:50.868Z,13.75
2023-05-06T11:06:37.835Z,13.69
2023-05-06T11:09:06.294Z,13.81
2023-05-06T11:11:52.251Z,14.04
2023-05-06T11:14:36.043Z,14.29
2023-05-06T11:17:05.376Z,14.20
2023-05-06T11:19:37.633Z,13.94
2023-05-06T11:22:06.089Z,13.85
2023-05-06T11:24:38.331Z,13.69
2023-05-06T11:27:05.800Z,13.65
2023-05-06T11:29:32.490Z,13.67
2023-05-06T11:31:59.350Z,13.68
2023-05-06T11:34:29.884Z,13.66
2023-05-06T11:36:57.579Z,13.74
2023-05-06T11:39:30.152Z,13.82
2023-05-06T11:42:02.859Z,13.95
2023-05-06T11:44:32.883Z,14.21
2023-05-06T11:47:02.027Z,14.46
2023-05-06T11:49:28.919Z,14.67
2023-05-06T11:51:57.117Z,14.83
2023-05-06T11:54:26.358Z,14.91
2023-05-06T11:56:56.190Z,15.08
2023-05-06T11:59:40.589Z,15.03
2023-05-06T12:02:10.016Z,15.10
2023-05-06T12:04:38.729Z,15.19
2023-05-06T12:07:07.462Z,15.28
2023-05-06T12:09:35.095Z,15.25
2023-05-06T12:12:03.620Z,15.22
2023-05-06T12:14:30.938Z,15.11
2023-05-06T12:16:58.152Z,15.21
2023-05-06T12:19:24.962Z,15.06
2023-05-06T12:21:52.365Z,15.11
2023-05-06T12:24:28.922Z,15.22
2023-05-06T12:26:56.152Z,15.48
2023-05-06T12:29:22.758Z,15.71
2023-05-06T12:31:49.603Z,15.99
2023-05-06T12:34:18.414Z,15.87
2023-05-06T12:36:47.072Z,16.08
2023-05-06T12:39:14.128Z,15.98
2023-05-06T12:41:45.046Z,15.77
2023-05-06T12:44:36.675Z,15.89
2023-05-06T12:47:24.952Z,16.01
2023-05-06T12:49:51.718Z,16.07
2023-05-06T12:52:20.582Z,16.25
2023-05-06T12:54:47.570Z,16.78
2023-05-06T12:57:14.556Z,17.02
2023-05-06T12:59:42.371Z,16.99
2023-05-06T13:02:09.730Z,17.27
2023-05-06T13:04:36.330Z,17.74
2023-05-06T13:07:03.467Z,17.51
2023-05-06T13:09:30.320Z,17.13
2023-05-06T13:11:56.883Z,16.95
2023-05-06T13:14:23.578Z,17.00
2023-05-06T13:16:50.352Z,16.95
2023-05-06T13:21:46.739Z,16.30
2023-05-06T13:24:13.279Z,16.39
2023-05-06T13:26:40.030Z,17.57
2023-05-06T13:29:06.821Z,18.98
2023-05-06T13:31:34.718Z,19.03
2023-05-06T13:34:01.463Z,18.80
2023-05-06T13:36:28.150Z,18.36
2023-05-06T13:38:55.036Z,17.84
2023-05-06T13:41:22.499Z,17.06
2023-05-06T13:43:49.036Z,16.13
2023-05-06T13:46:15.737Z,15.78
2023-05-06T13:48:42.357Z,15.72
2023-05-06T13:51:09.040Z,15.87
2023-05-06T13:53:35.629Z,15.66
2023-05-06T13:56:02.468Z,15.50
2023-05-06T13:58:29.148Z,15.33
2023-05-06T14:00:56.848Z,15.20
2023-05-06T14:03:23.421Z,15.21
2023-05-06T14:05:50.465Z,15.42
2023-05-06T14:08:17.274Z,16.58
2023-05-06T14:10:44.210Z,17.06
2023-05-06T14:13:11.608Z,16.85
2023-05-06T14:15:38.298Z,16.61
2023-05-06T14:18:05.097Z,16.31
2023-05-06T14:20:31.869Z,15.99
2023-05-06T14:22:58.457Z,15.77
2023-05-06T14:25:27.860Z,16.25
2023-05-06T14:27:55.061Z,16.44
2023-05-06T14:30:21.966Z,16.52
2023-05-06T14:32:48.722Z,16.32
2023-05-06T14:35:16.257Z,16.47
2023-05-06T14:37:42.832Z,16.19
2023-05-06T14:40:10.357Z,15.59
2023-05-06T14:42:37.205Z,14.99
2023-05-06T14:45:04.343Z,14.58
2023-05-06T14:47:31.059Z,14.55
2023-05-06T14:49:57.790Z,14.57
2023-05-06T14:52:24.430Z,14.76
2023-05-06T14:54:51.105Z,15.33
2023-05-06T14:57:17.737Z,15.30
2023-05-06T14:59:44.282Z,15.31
2023-05-06T15:02:11.084Z,15.07
2023-05-06T15:04:37.826Z,14.54
2023-05-06T15:07:04.633Z,14.21
2023-05-06T15:09:31.472Z,14.03
2023-05-06T15:11:58.238Z,13.89
2023-05-06T15:14:24.928Z,14.04
2023-05-06T15:16:55.932Z,14.22
2023-05-06T15:19:22.735Z,14.34
2023-05-06T15:21:49.341Z,13.99
2023-05-06T15:24:16.008Z,13.96
2023-05-06T15:26:42.831Z,14.22
2023-05-06T15:29:09.562Z,14.41
2023-05-06T15:31:39.172Z,14.52
2023-05-06T15:34:09.400Z,14.60
2023-05-06T15:36:36.143Z,14.72
2023-05-06T15:39:03.225Z,14.65
2023-05-06T15:41:32.294Z,14.59
2023-05-06T15:44:00.617Z,14.33
2023-05-06T15:46:28.013Z,14.19
2023-05-06T15:49:15.629Z,14.14
2023-05-06T15:51:41.487Z,14.01
2023-05-06T15:54:08.850Z,13.83
2023-05-06T15:56:40.669Z,13.82
2023-05-06T15:59:08.433Z,13.61
2023-05-06T16:01:57.361Z,13.45
2023-05-06T16:04:22.410Z,13.65
2023-05-06T16:06:49.874Z,13.81
2023-05-06T16:09:16.578Z,13.82
2023-05-06T16:11:43.214Z,13.79
2023-05-06T16:14:09.786Z,13.48
2023-05-06T16:16:36.615Z,13.29
2023-05-06T16:19:03.359Z,13.19
2023-05-06T16:21:30.401Z,13.33
2023-05-06T16:23:57.018Z,13.36
2023-05-06T16:26:24.520Z,13.45
2023-05-06T16:28:51.172Z,13.38
2023-05-06T16:31:18.424Z,13.33
2023-05-06T16:33:45.219Z,13.49
2023-05-06T16:36:12.547Z,13.40
2023-05-06T16:38:39.074Z,13.32
2023-05-06T16:41:05.756Z,13.20
2023-05-06T16:43:32.402Z,13.04
2023-05-06T16:45:58.945Z,12.89
2023-05-06T16:48:25.764Z,12.57
2023-05-06T16:50:52.967Z,12.46
2023-05-06T16:53:19.584Z,12.62
2023-05-06T16:55:49.907Z,12.69
2023-05-06T16:58:16.618Z,12.60
2023-05-06T17:00:43.501Z,12.43
2023-05-06T17:03:10.381Z,12.44
2023-05-06T17:05:37.127Z,12.54
2023-05-06T17:08:03.974Z,12.54
2023-05-06T17:10:30.670Z,12.62
2023-05-06T17:12:58.174Z,12.66
2023-05-06T17:15:25.166Z,12.75
2023-05-06T17:17:51.958Z,12.71
2023-05-06T17:20:21.888Z,12.61
2023-05-06T17:22:49.172Z,12.41
2023-05-06T17:25:16.150Z,12.20
2023-05-06T17:27:43.053Z,12.20
2023-05-06T17:30:09.941Z,12.24
2023-05-06T17:32:37.415Z,12.27
2023-05-06T17:35:04.621Z,12.31
2023-05-06T17:37:31.509Z,12.23
2023-05-06T17:39:58.192Z,12.14
2023-05-06T17:42:26.068Z,12.09
2023-05-06T17:44:53.119Z,11.96
2023-05-06T17:47:22.734Z,11.94
2023-05-06T17:49:53.694Z,11.96
2023-05-06T17:52:20.870Z,11.80
2023-05-06T17:55:05.699Z,11.66
2023-05-06T17:57:37.338Z,11.69
2023-05-06T18:00:04.498Z,11.77
2023-05-06T18:02:38.504Z,11.78
2023-05-06T18:05:06.361Z,11.77
2023-05-06T18:07:33.020Z,11.64
2023-05-06T18:09:59.730Z,11.38
2023-05-06T18:12:26.893Z,11.23
2023-05-06T18:14:55.295Z,11.26
2023-05-06T18:17:21.948Z,11.17
2023-05-06T18:19:48.675Z,11.11
2023-05-06T18:22:15.292Z,11.08
2023-05-06T18:24:41.887Z,11.02
2023-05-06T18:27:08.493Z,10.98
2023-05-06T18:29:35.516Z,11.01
2023-05-06T18:32:02.255Z,10.98
2023-05-06T18:34:29.052Z,10.91
2023-05-06T18:36:55.866Z,10.95
2023-05-06T18:39:23.613Z,11.04
2023-05-06T18:41:50.409Z,11.03
2023-05-06T18:44:17.030Z,11.00
2023-05-06T18:46:43.568Z,10.87
2023-05-06T18:49:10.250Z,10.76
2023-05-06T18:51:37.198Z,10.74
2023-05-06T18:54:04.349Z,10.73
2023-05-06T18:56:31.713Z,10.73
2023-05-06T18:58:58.556Z,10.71
2023-05-06T19:01:25.306Z,10.77
2023-05-06T19:03:52.486Z,10.76
2023-05-06T19:06:19.111Z,10.79
2023-05-06T19:08:45.837Z,10.72
2023-05-06T19:11:16.246Z,10.58
2023-05-06T19:13:43.887Z,10.61
2023-05-06T19:16:11.249Z,10.77
2023-05-06T19:18:38.123Z,10.83
2023-05-06T19:21:04.839Z,10.85
2023-05-06T19:23:32.813Z,10.80
2023-05-06T19:25:59.481Z,10.77
2023-05-06T19:28:26.085Z,10.69
2023-05-06T19:30:52.851Z,10.64
2023-05-06T19:33:19.559Z,10.67
2023-05-06T19:35:46.322Z,10.77
2023-05-06T19:38:12.900Z,10.81
2023-05-06T19:40:39.516Z,10.86
2023-05-06T19:43:06.064Z,10.87
2023-05-06T19:45:33.817Z,10.87
2023-05-06T19:48:01.199Z,10.88
2023-05-06T19:50:28.388Z,10.70
2023-05-06T19:52:55.019Z,10.52
2023-05-06T19:55:22.110Z,10.43
2023-05-06T19:57:50.184Z,10.35
2023-05-06T20:00:19.949Z,10.33
2023-05-06T20:02:46.653Z,10.46
2023-05-06T20:05:13.673Z,10.35
2023-05-06T20:07:41.203Z,10.25
2023-05-06T20:10:09.924Z,10.35
2023-05-06T20:12:36.503Z,10.30
2023-05-06T20:15:06.951Z,10.23
2023-05-06T20:17:34.561Z,10.35
2023-05-06T20:20:04.237Z,10.40
2023-05-06T20:22:32.332Z,10.42
2023-05-06T20:25:17.356Z,10.34
2023-05-06T20:27:45.100Z,10.29
2023-05-06T20:30:12.325Z,10.19
2023-05-06T20:32:40.387Z,10.07
2023-05-06T20:35:07.854Z,10.03
2023-05-06T20:37:35.365Z,9.98
2023-05-06T20:40:04.496Z,10.08
2023-05-06T20:42:31.364Z,10.09
2023-05-06T20:44:58.050Z,10.13
2023-05-06T20:47:24.657Z,10.10
2023-05-06T20:49:51.394Z,10.17
2023-05-06T20:52:18.300Z,10.12
2023-05-06T20:54:45.455Z,10.21
2023-05-06T20:57:14.603Z,10.20
2023-05-06T20:59:41.730Z,10.19
2023-05-06T21:02:09.043Z,10.17
2023-05-06T21:04:35.858Z,10.10
2023-05-06T21:07:02.935Z,10.11
2023-05-06T21:09:29.590Z,10.17
2023-05-06T21:11:56.603Z,10.14
2023-05-06T21:14:24.788Z,10.07
2023-05-06T21:16:52.198Z,9.96
2023-05-06T21:19:19.114Z,9.91
2023-05-06T21:21:45.771Z,9.89
2023-05-06T21:24:12.920Z,9.83
2023-05-06T21:26:40.004Z,9.93
2023-05-06T21:29:06.607Z,9.97
2023-05-06T21:31:33.359Z,10.07
2023-05-06T21:34:00.279Z,10.12
2023-05-06T21:36:27.129Z,10.01
2023-05-06T21:39:05.851Z,9.90
2023-05-06T21:41:35.315Z,9.88
2023-05-06T21:44:06.197Z,9.96
2023-05-06T21:46:34.325Z,9.78
2023-05-06T21:49:01.300Z,9.70
2023-05-06T21:51:29.934Z,9.63
2023-05-06T21:53:56.525Z,9.57
2023-05-06T21:56:23.213Z,9.63
2023-05-06T21:58:51.094Z,9.69
2023-05-06T22:01:18.077Z,9.79
2023-05-06T22:03:45.953Z,9.82
2023-05-06T22:06:12.779Z,9.79
2023-05-06T22:08:40.920Z,9.85
2023-05-06T22:11:07.667Z,9.70
2023-05-06T22:13:34.380Z,9.60
2023-05-06T22:16:01.142Z,9.62
2023-05-06T22:18:29.894Z,9.59
2023-05-06T22:20:57.822Z,9.62
2023-05-06T22:23:25.117Z,9.60
2023-05-06T22:25:52.165Z,9.50
2023-05-06T22:28:19.764Z,9.40
2023-05-06T22:30:46.501Z,9.38
2023-05-06T22:33:13.242Z,9.47
2023-05-06T22:35:40.007Z,9.41
2023-05-06T22:38:06.716Z,9.37
2023-05-06T22:40:33.307Z,9.40
2023-05-06T22:42:59.941Z,9.47
2023-05-06T22:45:26.593Z,9.37
2023-05-06T22:47:53.411Z,9.30
2023-05-06T22:50:20.090Z,9.34
2023-05-06T22:52:46.687Z,9.29
2023-05-06T22:55:13.494Z,9.28
2023-05-06T22:57:40.314Z,9.27
2023-05-06T23:00:08.618Z,9.21
2023-05-06T23:02:35.331Z,9.21
2023-05-06T23:05:01.983Z,9.31
2023-05-06T23:07:28.618Z,9.31
2023-05-06T23:09:55.299Z,9.18
2023-05-06T23:12:21.838Z,9.23
2023-05-06T23:14:48.392Z,9.19
2023-05-06T23:17:15.054Z,9.19
2023-05-06T23:19:42.450Z,9.15
2023-05-06T23:22:10.263Z,9.03
2023-05-06T23:24:36.870Z,8.98
2023-05-06T23:27:03.484Z,9.00
2023-05-06T23:29:30.179Z,8.99
2023-05-06T23:31:56.765Z,8.95
2023-05-06T23:34:23.484Z,9.01
2023-05-06T23:36:50.589Z,9.02
2023-05-06T23:39:17.556Z,8.93
2023-05-06T23:41:44.297Z,8.97
2023-05-06T23:44:10.897Z,8.97
2023-05-06T23:46:37.546Z,8.98
2023-05-06T23:49:05.335Z,8.85
2023-05-06T23:51:32.591Z,8.80
2023-05-06T23:53:59.180Z,8.80
2023-05-06T23:56:25.756Z,8.85
2023-05-06T23:58:52.365Z,8.80
